sensor_id;sensor_type;location;lat;lon;timestamp;P1;durP1;ratioP1;P2;durP2;ratioP2
26080;SDS011;13991;51.174;4.438;2023-05-03T00:00:23;6.33;;;1.97;;
26080;SDS011;13991;51.174;4.438;2023-05-03T00:02:50;15.90;;;2.47;;
26080;SDS011;13991;51.174;4.438;2023-05-03T00:05:18;8.00;;;2.20;;
26080;SDS011;13991;51.174;4.438;2023-05-03T00:07:43;6.20;;;2.07;;
26080;SDS011;13991;51.174;4.438;2023-05-03T00:10:10;10.70;;;2.17;;
26080;SDS011;13991;51.174;4.438;2023-05-03T00:12:40;10.77;;;2.10;;
26080;SDS011;13991;51.174;4.438;2023-05-03T00:15:07;5.37;;;1.90;;
26080;SDS011;13991;51.174;4.438;2023-05-03T00:17:34;10.27;;;2.50;;
26080;SDS011;13991;51.174;4.438;2023-05-03T00:20:01;15.67;;;2.37;;
26080;SDS011;13991;51.174;4.438;2023-05-03T00:22:28;17.27;;;2.40;;
26080;SDS011;13991;51.174;4.438;2023-05-03T00:24:54;16.33;;;3.10;;
26080;SDS011;13991;51.174;4.438;2023-05-03T00:27:20;15.47;;;3.10;;
26080;SDS011;13991;51.174;4.438;2023-05-03T00:29:48;9.07;;;2.80;;
26080;SDS011;13991;51.174;4.438;2023-05-03T00:32:16;11.07;;;2.63;;
26080;SDS011;13991;51.174;4.438;2023-05-03T00:34:42;5.97;;;1.80;;
26080;SDS011;13991;51.174;4.438;2023-05-03T00:37:08;5.80;;;1.97;;
26080;SDS011;13991;51.174;4.438;2023-05-03T00:39:34;12.20;;;2.70;;
26080;SDS011;13991;51.174;4.438;2023-05-03T00:42:01;9.90;;;2.27;;
26080;SDS011;13991;51.174;4.438;2023-05-03T00:44:28;8.03;;;2.77;;
26080;SDS011;13991;51.174;4.438;2023-05-03T00:46:54;12.00;;;2.40;;
26080;SDS011;13991;51.174;4.438;2023-05-03T00:49:21;21.03;;;2.87;;
26080;SDS011;13991;51.174;4.438;2023-05-03T00:51:49;8.87;;;3.13;;
26080;SDS011;13991;51.174;4.438;2023-05-03T00:54:16;9.20;;;2.80;;
26080;SDS011;13991;51.174;4.438;2023-05-03T00:56:42;15.13;;;3.13;;
26080;SDS011;13991;51.174;4.438;2023-05-03T00:59:08;6.03;;;2.20;;
26080;SDS011;13991;51.174;4.438;2023-05-03T01:01:37;8.70;;;2.60;;
26080;SDS011;13991;51.174;4.438;2023-05-03T01:04:03;10.60;;;2.60;;
26080;SDS011;13991;51.174;4.438;2023-05-03T01:09:02;11.77;;;2.57;;
26080;SDS011;13991;51.174;4.438;2023-05-03T01:15:05;11.80;;;2.90;;
26080;SDS011;13991;51.174;4.438;2023-05-03T01:17:40;11.93;;;3.07;;
26080;SDS011;13991;51.174;4.438;2023-05-03T01:20:15;17.73;;;2.77;;
26080;SDS011;13991;51.174;4.438;2023-05-03T01:25:23;9.07;;;2.93;;
26080;SDS011;13991;51.174;4.438;2023-05-03T01:27:50;16.60;;;2.50;;
26080;SDS011;13991;51.174;4.438;2023-05-03T01:30:17;10.23;;;2.93;;
26080;SDS011;13991;51.174;4.438;2023-05-03T01:33:09;11.57;;;3.07;;
26080;SDS011;13991;51.174;4.438;2023-05-03T01:36:01;13.53;;;3.23;;
26080;SDS011;13991;51.174;4.438;2023-05-03T01:38:35;14.00;;;2.57;;
26080;SDS011;13991;51.174;4.438;2023-05-03T01:41:04;4.57;;;2.73;;
26080;SDS011;13991;51.174;4.438;2023-05-03T01:43:33;13.30;;;2.47;;
26080;SDS011;13991;51.174;4.438;2023-05-03T01:46:01;19.53;;;2.97;;
26080;SDS011;13991;51.174;4.438;2023-05-03T01:48:26;11.37;;;3.03;;
26080;SDS011;13991;51.174;4.438;2023-05-03T01:50:52;9.97;;;2.63;;
26080;SDS011;13991;51.174;4.438;2023-05-03T01:53:18;7.77;;;2.87;;
26080;SDS011;13991;51.174;4.438;2023-05-03T01:55:44;9.97;;;3.00;;
26080;SDS011;13991;51.174;4.438;2023-05-03T01:58:09;9.80;;;2.63;;
26080;SDS011;13991;51.174;4.438;2023-05-03T02:00:36;8.50;;;2.60;;
26080;SDS011;13991;51.174;4.438;2023-05-03T02:03:02;15.57;;;2.97;;
26080;SDS011;13991;51.174;4.438;2023-05-03T02:05:28;12.30;;;3.30;;
26080;SDS011;13991;51.174;4.438;2023-05-03T02:07:54;17.43;;;3.03;;
26080;SDS011;13991;51.174;4.438;2023-05-03T02:10:19;6.87;;;2.83;;
26080;SDS011;13991;51.174;4.438;2023-05-03T02:12:45;15.57;;;3.10;;
26080;SDS011;13991;51.174;4.438;2023-05-03T02:15:11;9.87;;;3.57;;
26080;SDS011;13991;51.174;4.438;2023-05-03T02:17:37;13.60;;;3.30;;
26080;SDS011;13991;51.174;4.438;2023-05-03T02:20:04;10.03;;;3.53;;
26080;SDS011;13991;51.174;4.438;2023-05-03T02:22:31;10.53;;;2.87;;
26080;SDS011;13991;51.174;4.438;2023-05-03T02:24:57;12.90;;;3.07;;
26080;SDS011;13991;51.174;4.438;2023-05-03T02:27:23;11.17;;;2.73;;
26080;SDS011;13991;51.174;4.438;2023-05-03T02:29:50;18.40;;;3.37;;
26080;SDS011;13991;51.174;4.438;2023-05-03T02:32:15;16.40;;;3.97;;
26080;SDS011;13991;51.174;4.438;2023-05-03T02:34:42;14.50;;;3.50;;
26080;SDS011;13991;51.174;4.438;2023-05-03T02:37:09;9.80;;;3.00;;
26080;SDS011;13991;51.174;4.438;2023-05-03T02:39:34;12.97;;;3.43;;
26080;SDS011;13991;51.174;4.438;2023-05-03T02:42:00;7.57;;;3.37;;
26080;SDS011;13991;51.174;4.438;2023-05-03T02:44:26;17.10;;;3.87;;
26080;SDS011;13991;51.174;4.438;2023-05-03T02:46:52;7.93;;;2.80;;
26080;SDS011;13991;51.174;4.438;2023-05-03T02:49:18;12.67;;;3.37;;
26080;SDS011;13991;51.174;4.438;2023-05-03T02:51:44;11.73;;;3.40;;
26080;SDS011;13991;51.174;4.438;2023-05-03T02:54:10;10.40;;;3.00;;
26080;SDS011;13991;51.174;4.438;2023-05-03T02:56:36;6.50;;;3.03;;
26080;SDS011;13991;51.174;4.438;2023-05-03T02:59:02;12.73;;;3.77;;
26080;SDS011;13991;51.174;4.438;2023-05-03T03:01:28;8.50;;;3.73;;
26080;SDS011;13991;51.174;4.438;2023-05-03T03:03:54;14.17;;;3.17;;
26080;SDS011;13991;51.174;4.438;2023-05-03T03:06:20;16.23;;;3.83;;
26080;SDS011;13991;51.174;4.438;2023-05-03T03:08:45;8.23;;;3.23;;
26080;SDS011;13991;51.174;4.438;2023-05-03T03:11:11;14.13;;;3.70;;
26080;SDS011;13991;51.174;4.438;2023-05-03T03:13:37;18.43;;;3.10;;
26080;SDS011;13991;51.174;4.438;2023-05-03T03:16:08;9.17;;;2.80;;
26080;SDS011;13991;51.174;4.438;2023-05-03T03:18:34;10.80;;;3.40;;
26080;SDS011;13991;51.174;4.438;2023-05-03T03:21:01;6.03;;;3.67;;
26080;SDS011;13991;51.174;4.438;2023-05-03T03:23:27;11.13;;;3.67;;
26080;SDS011;13991;51.174;4.438;2023-05-03T03:25:53;9.67;;;3.10;;
26080;SDS011;13991;51.174;4.438;2023-05-03T03:28:19;14.30;;;2.83;;
26080;SDS011;13991;51.174;4.438;2023-05-03T03:30:45;10.93;;;3.70;;
26080;SDS011;13991;51.174;4.438;2023-05-03T03:33:10;13.63;;;3.47;;
26080;SDS011;13991;51.174;4.438;2023-05-03T03:35:36;14.53;;;3.70;;
26080;SDS011;13991;51.174;4.438;2023-05-03T03:38:03;15.57;;;3.43;;
26080;SDS011;13991;51.174;4.438;2023-05-03T03:40:29;15.60;;;4.03;;
26080;SDS011;13991;51.174;4.438;2023-05-03T03:42:55;12.20;;;3.40;;
26080;SDS011;13991;51.174;4.438;2023-05-03T03:45:21;9.77;;;3.17;;
26080;SDS011;13991;51.174;4.438;2023-05-03T03:47:46;11.07;;;3.40;;
26080;SDS011;13991;51.174;4.438;2023-05-03T03:50:12;17.53;;;3.53;;
26080;SDS011;13991;51.174;4.438;2023-05-03T03:52:38;16.00;;;3.43;;
26080;SDS011;13991;51.174;4.438;2023-05-03T03:55:04;8.47;;;3.53;;
26080;SDS011;13991;51.174;4.438;2023-05-03T03:57:30;10.77;;;2.90;;
26080;SDS011;13991;51.174;4.438;2023-05-03T03:59:56;10.77;;;3.20;;
26080;SDS011;13991;51.174;4.438;2023-05-03T04:02:22;12.27;;;3.30;;
26080;SDS011;13991;51.174;4.438;2023-05-03T04:04:48;15.73;;;3.93;;
26080;SDS011;13991;51.174;4.438;2023-05-03T04:07:14;13.47;;;3.37;;
26080;SDS011;13991;51.174;4.438;2023-05-03T04:09:40;8.00;;;3.27;;
26080;SDS011;13991;51.174;4.438;2023-05-03T04:12:06;11.60;;;3.63;;
26080;SDS011;13991;51.174;4.438;2023-05-03T04:14:32;12.87;;;3.53;;
26080;SDS011;13991;51.174;4.438;2023-05-03T04:16:58;12.20;;;2.77;;
26080;SDS011;13991;51.174;4.438;2023-05-03T04:19:23;16.80;;;3.03;;
26080;SDS011;13991;51.174;4.438;2023-05-03T04:21:50;17.57;;;3.83;;
26080;SDS011;13991;51.174;4.438;2023-05-03T04:24:16;12.23;;;3.93;;
26080;SDS011;13991;51.174;4.438;2023-05-03T04:26:42;11.43;;;3.23;;
26080;SDS011;13991;51.174;4.438;2023-05-03T04:29:08;11.30;;;2.67;;
26080;SDS011;13991;51.174;4.438;2023-05-03T04:31:37;9.13;;;3.27;;
26080;SDS011;13991;51.174;4.438;2023-05-03T04:34:03;9.03;;;3.07;;
26080;SDS011;13991;51.174;4.438;2023-05-03T04:36:30;10.23;;;3.33;;
26080;SDS011;13991;51.174;4.438;2023-05-03T04:38:56;12.77;;;3.77;;
26080;SDS011;13991;51.174;4.438;2023-05-03T04:41:22;10.40;;;2.83;;
26080;SDS011;13991;51.174;4.438;2023-05-03T04:43:48;11.50;;;3.70;;
26080;SDS011;13991;51.174;4.438;2023-05-03T04:46:14;11.80;;;3.27;;
26080;SDS011;13991;51.174;4.438;2023-05-03T04:48:40;15.80;;;3.67;;
26080;SDS011;13991;51.174;4.438;2023-05-03T04:51:06;17.13;;;3.40;;
26080;SDS011;13991;51.174;4.438;2023-05-03T04:53:32;24.40;;;3.63;;
26080;SDS011;13991;51.174;4.438;2023-05-03T04:55:58;12.30;;;3.50;;
26080;SDS011;13991;51.174;4.438;2023-05-03T04:58:23;12.50;;;3.43;;
26080;SDS011;13991;51.174;4.438;2023-05-03T05:00:49;11.77;;;3.60;;
26080;SDS011;13991;51.174;4.438;2023-05-03T05:03:15;7.17;;;3.30;;
26080;SDS011;13991;51.174;4.438;2023-05-03T05:05:40;14.90;;;3.50;;
26080;SDS011;13991;51.174;4.438;2023-05-03T05:08:06;9.17;;;3.53;;
26080;SDS011;13991;51.174;4.438;2023-05-03T05:10:35;14.40;;;3.87;;
26080;SDS011;13991;51.174;4.438;2023-05-03T05:13:02;16.23;;;3.90;;
26080;SDS011;13991;51.174;4.438;2023-05-03T05:15:28;8.47;;;3.57;;
26080;SDS011;13991;51.174;4.438;2023-05-03T05:17:53;12.33;;;3.80;;
26080;SDS011;13991;51.174;4.438;2023-05-03T05:20:19;12.37;;;3.73;;
26080;SDS011;13991;51.174;4.438;2023-05-03T05:22:45;11.63;;;3.80;;
26080;SDS011;13991;51.174;4.438;2023-05-03T05:25:10;12.77;;;3.17;;
26080;SDS011;13991;51.174;4.438;2023-05-03T05:27:36;13.77;;;3.20;;
26080;SDS011;13991;51.174;4.438;2023-05-03T05:30:02;10.37;;;3.23;;
26080;SDS011;13991;51.174;4.438;2023-05-03T05:32:28;16.03;;;3.17;;
26080;SDS011;13991;51.174;4.438;2023-05-03T05:34:54;19.73;;;3.93;;
26080;SDS011;13991;51.174;4.438;2023-05-03T05:37:23;22.73;;;4.17;;
26080;SDS011;13991;51.174;4.438;2023-05-03T05:39:49;8.53;;;3.00;;
26080;SDS011;13991;51.174;4.438;2023-05-03T05:42:15;15.07;;;3.23;;
26080;SDS011;13991;51.174;4.438;2023-05-03T05:44:41;13.43;;;3.63;;
26080;SDS011;13991;51.174;4.438;2023-05-03T05:47:07;16.93;;;4.23;;
26080;SDS011;13991;51.174;4.438;2023-05-03T05:49:33;11.93;;;3.53;;
26080;SDS011;13991;51.174;4.438;2023-05-03T05:51:59;18.93;;;3.43;;
26080;SDS011;13991;51.174;4.438;2023-05-03T05:54:25;13.33;;;3.63;;
26080;SDS011;13991;51.174;4.438;2023-05-03T05:56:51;8.47;;;4.27;;
26080;SDS011;13991;51.174;4.438;2023-05-03T05:59:17;20.90;;;3.47;;
26080;SDS011;13991;51.174;4.438;2023-05-03T06:01:43;12.70;;;3.47;;
26080;SDS011;13991;51.174;4.438;2023-05-03T06:04:10;17.17;;;4.73;;
26080;SDS011;13991;51.174;4.438;2023-05-03T06:06:36;22.63;;;4.07;;
26080;SDS011;13991;51.174;4.438;2023-05-03T06:09:02;14.07;;;3.70;;
26080;SDS011;13991;51.174;4.438;2023-05-03T06:11:28;14.97;;;3.83;;
26080;SDS011;13991;51.174;4.438;2023-05-03T06:13:54;17.43;;;3.73;;
26080;SDS011;13991;51.174;4.438;2023-05-03T06:16:21;12.27;;;4.37;;
26080;SDS011;13991;51.174;4.438;2023-05-03T06:18:47;14.40;;;3.63;;
26080;SDS011;13991;51.174;4.438;2023-05-03T06:21:13;12.30;;;3.50;;
26080;SDS011;13991;51.174;4.438;2023-05-03T06:23:38;12.50;;;3.83;;
26080;SDS011;13991;51.174;4.438;2023-05-03T06:26:04;7.33;;;4.10;;
26080;SDS011;13991;51.174;4.438;2023-05-03T06:28:30;10.47;;;4.20;;
26080;SDS011;13991;51.174;4.438;2023-05-03T06:30:56;20.70;;;4.33;;
26080;SDS011;13991;51.174;4.438;2023-05-03T06:33:21;10.63;;;4.00;;
26080;SDS011;13991;51.174;4.438;2023-05-03T06:35:47;10.23;;;4.20;;
26080;SDS011;13991;51.174;4.438;2023-05-03T06:38:13;13.00;;;4.20;;
26080;SDS011;13991;51.174;4.438;2023-05-03T06:40:38;15.53;;;4.90;;
26080;SDS011;13991;51.174;4.438;2023-05-03T06:43:05;14.03;;;3.93;;
26080;SDS011;13991;51.174;4.438;2023-05-03T06:45:31;13.90;;;4.13;;
26080;SDS011;13991;51.174;4.438;2023-05-03T06:47:57;18.23;;;4.40;;
26080;SDS011;13991;51.174;4.438;2023-05-03T06:50:23;16.20;;;4.70;;
26080;SDS011;13991;51.174;4.438;2023-05-03T06:52:50;26.83;;;5.83;;
26080;SDS011;13991;51.174;4.438;2023-05-03T06:55:16;10.57;;;5.23;;
26080;SDS011;13991;51.174;4.438;2023-05-03T06:57:41;21.87;;;4.90;;
26080;SDS011;13991;51.174;4.438;2023-05-03T07:00:08;13.87;;;4.07;;
26080;SDS011;13991;51.174;4.438;2023-05-03T07:02:34;14.20;;;4.43;;
26080;SDS011;13991;51.174;4.438;2023-05-03T07:04:59;9.23;;;4.17;;
26080;SDS011;13991;51.174;4.438;2023-05-03T07:07:25;13.10;;;4.90;;
26080;SDS011;13991;51.174;4.438;2023-05-03T07:09:51;16.07;;;4.67;;
26080;SDS011;13991;51.174;4.438;2023-05-03T07:12:16;14.87;;;4.80;;
26080;SDS011;13991;51.174;4.438;2023-05-03T07:14:42;25.13;;;4.67;;
26080;SDS011;13991;51.174;4.438;2023-05-03T07:17:08;18.83;;;5.27;;
26080;SDS011;13991;51.174;4.438;2023-05-03T07:19:34;20.00;;;4.57;;
26080;SDS011;13991;51.174;4.438;2023-05-03T07:22:01;24.60;;;5.07;;
26080;SDS011;13991;51.174;4.438;2023-05-03T07:24:27;13.33;;;4.80;;
26080;SDS011;13991;51.174;4.438;2023-05-03T07:26:53;11.80;;;4.33;;
26080;SDS011;13991;51.174;4.438;2023-05-03T07:29:19;16.23;;;4.97;;
26080;SDS011;13991;51.174;4.438;2023-05-03T07:31:45;20.03;;;4.93;;
26080;SDS011;13991;51.174;4.438;2023-05-03T07:34:11;16.57;;;4.37;;
26080;SDS011;13991;51.174;4.438;2023-05-03T07:36:37;12.57;;;4.87;;
26080;SDS011;13991;51.174;4.438;2023-05-03T07:39:03;9.90;;;4.70;;
26080;SDS011;13991;51.174;4.438;2023-05-03T07:41:29;16.27;;;5.93;;
26080;SDS011;13991;51.174;4.438;2023-05-03T07:43:55;10.63;;;4.83;;
26080;SDS011;13991;51.174;4.438;2023-05-03T07:46:21;17.20;;;5.30;;
26080;SDS011;13991;51.174;4.438;2023-05-03T07:48:47;14.30;;;4.80;;
26080;SDS011;13991;51.174;4.438;2023-05-03T07:51:13;12.40;;;4.67;;
26080;SDS011;13991;51.174;4.438;2023-05-03T07:53:39;11.37;;;4.90;;
26080;SDS011;13991;51.174;4.438;2023-05-03T07:56:06;12.40;;;5.43;;
26080;SDS011;13991;51.174;4.438;2023-05-03T07:58:31;17.43;;;5.00;;
26080;SDS011;13991;51.174;4.438;2023-05-03T08:00:57;11.90;;;4.70;;
26080;SDS011;13991;51.174;4.438;2023-05-03T08:03:23;19.53;;;5.00;;
26080;SDS011;13991;51.174;4.438;2023-05-03T08:05:49;17.83;;;5.43;;
26080;SDS011;13991;51.174;4.438;2023-05-03T08:08:21;11.97;;;5.23;;
26080;SDS011;13991;51.174;4.438;2023-05-03T08:10:48;24.13;;;6.53;;
26080;SDS011;13991;51.174;4.438;2023-05-03T08:13:16;13.33;;;4.80;;
26080;SDS011;13991;51.174;4.438;2023-05-03T08:15:41;22.47;;;5.13;;
26080;SDS011;13991;51.174;4.438;2023-05-03T08:18:07;17.93;;;6.40;;
26080;SDS011;13991;51.174;4.438;2023-05-03T08:20:33;15.37;;;5.33;;
26080;SDS011;13991;51.174;4.438;2023-05-03T08:23:01;18.07;;;5.50;;
26080;SDS011;13991;51.174;4.438;2023-05-03T08:25:26;13.53;;;5.27;;
26080;SDS011;13991;51.174;4.438;2023-05-03T08:27:52;16.50;;;5.07;;
26080;SDS011;13991;51.174;4.438;2023-05-03T08:30:19;16.90;;;6.00;;
26080;SDS011;13991;51.174;4.438;2023-05-03T08:32:46;21.20;;;6.57;;
26080;SDS011;13991;51.174;4.438;2023-05-03T08:35:11;17.77;;;6.03;;
26080;SDS011;13991;51.174;4.438;2023-05-03T08:37:39;24.97;;;7.43;;
26080;SDS011;13991;51.174;4.438;2023-05-03T08:40:06;26.10;;;6.80;;
26080;SDS011;13991;51.174;4.438;2023-05-03T08:42:37;13.77;;;6.13;;
26080;SDS011;13991;51.174;4.438;2023-05-03T08:45:04;21.93;;;6.63;;
26080;SDS011;13991;51.174;4.438;2023-05-03T08:47:33;21.53;;;6.10;;
26080;SDS011;13991;51.174;4.438;2023-05-03T08:50:03;20.07;;;6.63;;
26080;SDS011;13991;51.174;4.438;2023-05-03T08:52:29;23.77;;;6.50;;
26080;SDS011;13991;51.174;4.438;2023-05-03T08:54:55;17.47;;;6.07;;
26080;SDS011;13991;51.174;4.438;2023-05-03T08:57:22;13.67;;;6.00;;
26080;SDS011;13991;51.174;4.438;2023-05-03T08:59:49;17.90;;;5.53;;
26080;SDS011;13991;51.174;4.438;2023-05-03T09:02:18;17.87;;;6.00;;
26080;SDS011;13991;51.174;4.438;2023-05-03T09:04:45;21.60;;;5.47;;
26080;SDS011;13991;51.174;4.438;2023-05-03T09:07:11;21.20;;;5.83;;
26080;SDS011;13991;51.174;4.438;2023-05-03T09:09:39;16.77;;;5.80;;
26080;SDS011;13991;51.174;4.438;2023-05-03T09:12:05;15.63;;;5.47;;
26080;SDS011;13991;51.174;4.438;2023-05-03T09:14:40;20.17;;;6.27;;
26080;SDS011;13991;51.174;4.438;2023-05-03T09:17:14;10.33;;;5.33;;
26080;SDS011;13991;51.174;4.438;2023-05-03T09:19:52;20.87;;;5.80;;
26080;SDS011;13991;51.174;4.438;2023-05-03T09:22:18;22.23;;;5.40;;
26080;SDS011;13991;51.174;4.438;2023-05-03T09:24:54;14.17;;;5.10;;
26080;SDS011;13991;51.174;4.438;2023-05-03T09:27:25;14.97;;;5.20;;
26080;SDS011;13991;51.174;4.438;2023-05-03T09:30:05;15.67;;;5.40;;
26080;SDS011;13991;51.174;4.438;2023-05-03T09:32:48;12.53;;;5.47;;
26080;SDS011;13991;51.174;4.438;2023-05-03T09:35:14;24.03;;;5.47;;
26080;SDS011;13991;51.174;4.438;2023-05-03T09:37:40;11.93;;;4.63;;
26080;SDS011;13991;51.174;4.438;2023-05-03T09:40:07;17.43;;;4.97;;
26080;SDS011;13991;51.174;4.438;2023-05-03T09:42:34;17.93;;;5.73;;
26080;SDS011;13991;51.174;4.438;2023-05-03T09:45:00;14.97;;;5.27;;
26080;SDS011;13991;51.174;4.438;2023-05-03T09:47:25;16.30;;;5.33;;
26080;SDS011;13991;51.174;4.438;2023-05-03T09:49:52;23.03;;;5.63;;
26080;SDS011;13991;51.174;4.438;2023-05-03T09:52:18;13.50;;;4.90;;
26080;SDS011;13991;51.174;4.438;2023-05-03T09:54:54;19.97;;;5.50;;
26080;SDS011;13991;51.174;4.438;2023-05-03T09:57:25;14.03;;;5.03;;
26080;SDS011;13991;51.174;4.438;2023-05-03T09:59:53;13.67;;;5.93;;
26080;SDS011;13991;51.174;4.438;2023-05-03T10:02:21;17.27;;;5.47;;
26080;SDS011;13991;51.174;4.438;2023-05-03T10:04:48;20.67;;;5.67;;
26080;SDS011;13991;51.174;4.438;2023-05-03T10:07:20;22.87;;;6.17;;
26080;SDS011;13991;51.174;4.438;2023-05-03T10:09:48;21.13;;;6.47;;
26080;SDS011;13991;51.174;4.438;2023-05-03T10:12:15;16.27;;;6.23;;
26080;SDS011;13991;51.174;4.438;2023-05-03T10:14:42;21.13;;;6.00;;
26080;SDS011;13991;51.174;4.438;2023-05-03T10:17:17;10.93;;;5.90;;
26080;SDS011;13991;51.174;4.438;2023-05-03T10:19:51;15.90;;;6.40;;
26080;SDS011;13991;51.174;4.438;2023-05-03T10:22:19;20.53;;;6.23;;
26080;SDS011;13991;51.174;4.438;2023-05-03T10:32:56;17.70;;;5.80;;
26080;SDS011;13991;51.174;4.438;2023-05-03T10:35:38;19.30;;;6.43;;
26080;SDS011;13991;51.174;4.438;2023-05-03T10:40:50;12.70;;;5.83;;
26080;SDS011;13991;51.174;4.438;2023-05-03T10:48:23;16.67;;;5.67;;
26080;SDS011;13991;51.174;4.438;2023-05-03T10:50:48;15.80;;;5.80;;
26080;SDS011;13991;51.174;4.438;2023-05-03T10:56:11;17.83;;;6.03;;
26080;SDS011;13991;51.174;4.438;2023-05-03T10:58:45;30.07;;;6.20;;
26080;SDS011;13991;51.174;4.438;2023-05-03T11:01:17;19.10;;;6.50;;
26080;SDS011;13991;51.174;4.438;2023-05-03T11:06:37;15.93;;;6.90;;
26080;SDS011;13991;51.174;4.438;2023-05-03T11:09:05;12.00;;;5.73;;
26080;SDS011;13991;51.174;4.438;2023-05-03T11:11:34;21.63;;;6.23;;
26080;SDS011;13991;51.174;4.438;2023-05-03T11:14:01;12.20;;;6.60;;
26080;SDS011;13991;51.174;4.438;2023-05-03T11:16:27;19.00;;;6.30;;
26080;SDS011;13991;51.174;4.438;2023-05-03T11:18:53;13.00;;;5.83;;
26080;SDS011;13991;51.174;4.438;2023-05-03T11:21:20;19.33;;;6.17;;
26080;SDS011;13991;51.174;4.438;2023-05-03T11:23:46;20.90;;;6.63;;
26080;SDS011;13991;51.174;4.438;2023-05-03T11:26:12;15.03;;;6.20;;
26080;SDS011;13991;51.174;4.438;2023-05-03T11:28:39;16.87;;;6.30;;
26080;SDS011;13991;51.174;4.438;2023-05-03T11:31:06;18.13;;;6.30;;
26080;SDS011;13991;51.174;4.438;2023-05-03T11:33:33;18.37;;;6.33;;
26080;SDS011;13991;51.174;4.438;2023-05-03T11:36:00;16.83;;;6.70;;
26080;SDS011;13991;51.174;4.438;2023-05-03T11:38:29;15.40;;;6.17;;
26080;SDS011;13991;51.174;4.438;2023-05-03T11:40:56;10.90;;;5.90;;
26080;SDS011;13991;51.174;4.438;2023-05-03T11:43:22;14.23;;;5.63;;
26080;SDS011;13991;51.174;4.438;2023-05-03T11:45:49;15.30;;;6.43;;
26080;SDS011;13991;51.174;4.438;2023-05-03T11:48:16;20.53;;;6.17;;
26080;SDS011;13991;51.174;4.438;2023-05-03T11:50:43;13.90;;;6.60;;
26080;SDS011;13991;51.174;4.438;2023-05-03T11:53:15;11.10;;;6.13;;
26080;SDS011;13991;51.174;4.438;2023-05-03T11:55:43;13.40;;;6.47;;
26080;SDS011;13991;51.174;4.438;2023-05-03T11:58:13;15.30;;;5.73;;
26080;SDS011;13991;51.174;4.438;2023-05-03T12:00:44;19.07;;;7.60;;
26080;SDS011;13991;51.174;4.438;2023-05-03T12:03:20;16.37;;;6.30;;
26080;SDS011;13991;51.174;4.438;2023-05-03T12:05:48;12.37;;;6.27;;
26080;SDS011;13991;51.174;4.438;2023-05-03T12:08:16;12.67;;;6.63;;
26080;SDS011;13991;51.174;4.438;2023-05-03T12:10:43;12.23;;;6.00;;
26080;SDS011;13991;51.174;4.438;2023-05-03T12:13:09;20.87;;;6.93;;
26080;SDS011;13991;51.174;4.438;2023-05-03T12:15:36;18.50;;;6.83;;
26080;SDS011;13991;51.174;4.438;2023-05-03T12:18:12;18.63;;;7.77;;
26080;SDS011;13991;51.174;4.438;2023-05-03T12:20:38;18.00;;;6.60;;
26080;SDS011;13991;51.174;4.438;2023-05-03T12:23:05;12.80;;;6.23;;
26080;SDS011;13991;51.174;4.438;2023-05-03T12:25:32;15.10;;;7.03;;
26080;SDS011;13991;51.174;4.438;2023-05-03T12:28:00;18.20;;;6.60;;
26080;SDS011;13991;51.174;4.438;2023-05-03T12:30:28;17.43;;;6.37;;
26080;SDS011;13991;51.174;4.438;2023-05-03T12:32:54;13.03;;;6.53;;
26080;SDS011;13991;51.174;4.438;2023-05-03T12:35:20;19.83;;;6.30;;
26080;SDS011;13991;51.174;4.438;2023-05-03T12:37:46;11.53;;;5.60;;
26080;SDS011;13991;51.174;4.438;2023-05-03T12:40:13;10.17;;;5.40;;
26080;SDS011;13991;51.174;4.438;2023-05-03T12:42:39;11.93;;;5.07;;
26080;SDS011;13991;51.174;4.438;2023-05-03T12:45:05;14.03;;;6.50;;
26080;SDS011;13991;51.174;4.438;2023-05-03T12:47:32;15.53;;;7.20;;
26080;SDS011;13991;51.174;4.438;2023-05-03T12:49:58;13.03;;;6.67;;
26080;SDS011;13991;51.174;4.438;2023-05-03T12:52:23;17.60;;;6.70;;
26080;SDS011;13991;51.174;4.438;2023-05-03T12:54:49;15.67;;;6.80;;
26080;SDS011;13991;51.174;4.438;2023-05-03T12:57:16;11.90;;;5.57;;
26080;SDS011;13991;51.174;4.438;2023-05-03T12:59:41;16.27;;;6.47;;
26080;SDS011;13991;51.174;4.438;2023-05-03T13:02:08;20.63;;;6.10;;
26080;SDS011;13991;51.174;4.438;2023-05-03T13:04:34;21.43;;;6.23;;
26080;SDS011;13991;51.174;4.438;2023-05-03T13:07:00;19.60;;;5.50;;
26080;SDS011;13991;51.174;4.438;2023-05-03T13:09:27;16.80;;;5.80;;
26080;SDS011;13991;51.174;4.438;2023-05-03T13:11:53;17.10;;;6.77;;
26080;SDS011;13991;51.174;4.438;2023-05-03T13:14:19;13.87;;;5.67;;
26080;SDS011;13991;51.174;4.438;2023-05-03T13:16:46;16.10;;;6.57;;
26080;SDS011;13991;51.174;4.438;2023-05-03T13:19:13;14.40;;;5.70;;
26080;SDS011;13991;51.174;4.438;2023-05-03T13:21:40;20.33;;;5.03;;
26080;SDS011;13991;51.174;4.438;2023-05-03T13:24:06;11.97;;;5.00;;
26080;SDS011;13991;51.174;4.438;2023-05-03T13:26:32;15.50;;;5.20;;
26080;SDS011;13991;51.174;4.438;2023-05-03T13:28:58;18.10;;;5.97;;
26080;SDS011;13991;51.174;4.438;2023-05-03T13:31:24;28.03;;;5.63;;
26080;SDS011;13991;51.174;4.438;2023-05-03T13:33:54;10.77;;;5.20;;
26080;SDS011;13991;51.174;4.438;2023-05-03T13:36:21;21.23;;;5.77;;
26080;SDS011;13991;51.174;4.438;2023-05-03T13:38:51;12.50;;;5.10;;
26080;SDS011;13991;51.174;4.438;2023-05-03T13:41:17;13.10;;;5.10;;
26080;SDS011;13991;51.174;4.438;2023-05-03T13:43:46;10.00;;;5.30;;
26080;SDS011;13991;51.174;4.438;2023-05-03T13:46:12;9.63;;;4.60;;
26080;SDS011;13991;51.174;4.438;2023-05-03T13:48:38;10.50;;;4.83;;
26080;SDS011;13991;51.174;4.438;2023-05-03T13:53:33;18.07;;;5.73;;
26080;SDS011;13991;51.174;4.438;2023-05-03T13:55:59;17.77;;;5.87;;
26080;SDS011;13991;51.174;4.438;2023-05-03T13:58:25;15.33;;;5.10;;
26080;SDS011;13991;51.174;4.438;2023-05-03T14:00:50;11.23;;;4.90;;
26080;SDS011;13991;51.174;4.438;2023-05-03T14:03:16;12.10;;;5.13;;
26080;SDS011;13991;51.174;4.438;2023-05-03T14:05:41;13.13;;;4.33;;
26080;SDS011;13991;51.174;4.438;2023-05-03T14:08:07;17.33;;;5.43;;
26080;SDS011;13991;51.174;4.438;2023-05-03T14:10:33;10.00;;;4.97;;
26080;SDS011;13991;51.174;4.438;2023-05-03T14:12:59;13.60;;;5.13;;
26080;SDS011;13991;51.174;4.438;2023-05-03T14:15:25;10.30;;;5.43;;
26080;SDS011;13991;51.174;4.438;2023-05-03T14:17:51;17.63;;;5.13;;
26080;SDS011;13991;51.174;4.438;2023-05-03T14:20:16;21.90;;;5.80;;
26080;SDS011;13991;51.174;4.438;2023-05-03T14:22:43;18.53;;;6.03;;
26080;SDS011;13991;51.174;4.438;2023-05-03T14:25:09;13.97;;;5.70;;
26080;SDS011;13991;51.174;4.438;2023-05-03T14:27:36;17.67;;;6.27;;
26080;SDS011;13991;51.174;4.438;2023-05-03T14:30:01;16.17;;;5.17;;
26080;SDS011;13991;51.174;4.438;2023-05-03T14:32:27;15.30;;;5.60;;
26080;SDS011;13991;51.174;4.438;2023-05-03T14:34:53;18.63;;;5.60;;
26080;SDS011;13991;51.174;4.438;2023-05-03T14:37:19;10.00;;;5.17;;
26080;SDS011;13991;51.174;4.438;2023-05-03T14:39:45;12.87;;;4.97;;
26080;SDS011;13991;51.174;4.438;2023-05-03T14:42:10;14.40;;;5.33;;
26080;SDS011;13991;51.174;4.438;2023-05-03T14:44:36;16.10;;;5.07;;
26080;SDS011;13991;51.174;4.438;2023-05-03T14:47:03;11.30;;;5.67;;
26080;SDS011;13991;51.174;4.438;2023-05-03T14:49:30;16.23;;;5.37;;
26080;SDS011;13991;51.174;4.438;2023-05-03T14:52:01;18.83;;;5.63;;
26080;SDS011;13991;51.174;4.438;2023-05-03T14:54:27;14.07;;;5.87;;
26080;SDS011;13991;51.174;4.438;2023-05-03T14:56:52;13.43;;;5.20;;
26080;SDS011;13991;51.174;4.438;2023-05-03T14:59:18;14.23;;;5.73;;
26080;SDS011;13991;51.174;4.438;2023-05-03T15:01:44;12.27;;;5.70;;
26080;SDS011;13991;51.174;4.438;2023-05-03T15:04:09;15.10;;;5.80;;
26080;SDS011;13991;51.174;4.438;2023-05-03T15:06:35;20.63;;;6.37;;